sensor_id;sensor_type;location;lat;lon;timestamp;temperature;humidity
21801;DHT22;11062;51.164;16.924;2023-04-29T00:00:01;29.00;35.30
21801;DHT22;11062;51.164;16.924;2023-04-29T00:02:29;29.60;35.50
21801;DHT22;11062;51.164;16.924;2023-04-29T00:04:57;28.80;35.80
21801;DHT22;11062;51.164;16.924;2023-04-29T00:07:24;29.00;36.20
21801;DHT22;11062;51.164;16.924;2023-04-29T00:09:50;28.50;36.80
21801;DHT22;11062;51.164;16.924;2023-04-29T00:12:16;28.60;36.40
21801;DHT22;11062;51.164;16.924;2023-04-29T00:14:42;28.50;37.00
21801;DHT22;11062;51.164;16.924;2023-04-29T00:17:08;27.80;36.90
21801;DHT22;11062;51.164;16.924;2023-04-29T00:19:34;28.70;37.10
21801;DHT22;11062;51.164;16.924;2023-04-29T00:22:03;28.40;36.30
21801;DHT22;11062;51.164;16.924;2023-04-29T00:24:29;29.00;36.50
21801;DHT22;11062;51.164;16.924;2023-04-29T00:26:55;28.60;35.80
21801;DHT22;11062;51.164;16.924;2023-04-29T00:29:27;28.80;36.10
21801;DHT22;11062;51.164;16.924;2023-04-29T00:31:56;29.10;36.20
21801;DHT22;11062;51.164;16.924;2023-04-29T00:34:25;29.20;36.40
21801;DHT22;11062;51.164;16.924;2023-04-29T00:36:51;29.60;36.30
21801;DHT22;11062;51.164;16.924;2023-04-29T00:39:20;29.00;35.40
21801;DHT22;11062;51.164;16.924;2023-04-29T00:41:49;29.60;35.90
21801;DHT22;11062;51.164;16.924;2023-04-29T00:44:18;30.00;35.70
21801;DHT22;11062;51.164;16.924;2023-04-29T00:46:44;29.80;35.50
21801;DHT22;11062;51.164;16.924;2023-04-29T00:49:11;29.20;35.70
21801;DHT22;11062;51.164;16.924;2023-04-29T00:51:39;29.50;35.80
21801;DHT22;11062;51.164;16.924;2023-04-29T00:54:07;29.00;35.60
21801;DHT22;11062;51.164;16.924;2023-04-29T00:56:36;28.90;35.50
21801;DHT22;11062;51.164;16.924;2023-04-29T00:59:06;29.00;36.10
21801;DHT22;11062;51.164;16.924;2023-04-29T01:01:40;28.60;36.20
21801;DHT22;11062;51.164;16.924;2023-04-29T01:04:09;28.80;36.40
21801;DHT22;11062;51.164;16.924;2023-04-29T01:06:53;28.80;36.50
21801;DHT22;11062;51.164;16.924;2023-04-29T01:15:22;28.90;36.70
21801;DHT22;11062;51.164;16.924;2023-04-29T01:17:59;29.10;36.80
21801;DHT22;11062;51.164;16.924;2023-04-29T01:20:29;28.90;36.50
21801;DHT22;11062;51.164;16.924;2023-04-29T01:22:59;29.40;36.20
21801;DHT22;11062;51.164;16.924;2023-04-29T01:25:28;29.90;36.40
21801;DHT22;11062;51.164;16.924;2023-04-29T01:28:17;30.20;36.10
21801;DHT22;11062;51.164;16.924;2023-04-29T01:36:25;30.20;35.90
21801;DHT22;11062;51.164;16.924;2023-04-29T01:41:52;29.90;35.20
21801;DHT22;11062;51.164;16.924;2023-04-29T01:44:29;29.90;35.80
21801;DHT22;11062;51.164;16.924;2023-04-29T01:46:58;29.80;35.90
21801;DHT22;11062;51.164;16.924;2023-04-29T01:49:27;29.70;36.00
21801;DHT22;11062;51.164;16.924;2023-04-29T01:51:56;29.20;36.10
21801;DHT22;11062;51.164;16.924;2023-04-29T01:54:25;29.40;36.60
21801;DHT22;11062;51.164;16.924;2023-04-29T01:56:51;29.50;36.90
21801;DHT22;11062;51.164;16.924;2023-04-29T01:59:20;29.80;36.30
21801;DHT22;11062;51.164;16.924;2023-04-29T02:01:48;30.40;36.10
21801;DHT22;11062;51.164;16.924;2023-04-29T02:04:14;30.60;35.60
21801;DHT22;11062;51.164;16.924;2023-04-29T02:06:40;30.90;35.50
21801;DHT22;11062;51.164;16.924;2023-04-29T02:09:06;31.30;35.30
21801;DHT22;11062;51.164;16.924;2023-04-29T02:11:32;31.50;34.90
21801;DHT22;11062;51.164;16.924;2023-04-29T02:13:58;31.80;34.70
21801;DHT22;11062;51.164;16.924;2023-04-29T02:16:24;31.90;34.60
21801;DHT22;11062;51.164;16.924;2023-04-29T02:18:53;32.00;34.60
21801;DHT22;11062;51.164;16.924;2023-04-29T02:21:19;32.10;34.40
21801;DHT22;11062;51.164;16.924;2023-04-29T02:23:47;32.10;34.20
21801;DHT22;11062;51.164;16.924;2023-04-29T02:26:16;32.30;34.30
21801;DHT22;11062;51.164;16.924;2023-04-29T02:28:45;32.60;34.20
21801;DHT22;11062;51.164;16.924;2023-04-29T02:31:11;32.50;34.00
21801;DHT22;11062;51.164;16.924;2023-04-29T02:33:37;32.70;33.80
21801;DHT22;11062;51.164;16.924;2023-04-29T02:36:07;32.50;33.70
21801;DHT22;11062;51.164;16.924;2023-04-29T02:38:35;32.80;33.70
21801;DHT22;11062;51.164;16.924;2023-04-29T02:41:01;32.80;33.50
21801;DHT22;11062;51.164;16.924;2023-04-29T02:43:27;32.90;33.60
21801;DHT22;11062;51.164;16.924;2023-04-29T02:45:55;33.00;33.30
21801;DHT22;11062;51.164;16.924;2023-04-29T02:48:24;33.00;33.30
21801;DHT22;11062;51.164;16.924;2023-04-29T02:50:50;33.00;33.30
21801;DHT22;11062;51.164;16.924;2023-04-29T02:53:17;33.00;33.30
21801;DHT22;11062;51.164;16.924;2023-04-29T02:55:46;33.00;33.30
21801;DHT22;11062;51.164;16.924;2023-04-29T02:58:15;33.00;33.30
21801;DHT22;11062;51.164;16.924;2023-04-29T03:00:41;33.10;33.40
21801;DHT22;11062;51.164;16.924;2023-04-29T03:03:10;33.00;33.40
21801;DHT22;11062;51.164;16.924;2023-04-29T03:05:36;33.00;33.30
21801;DHT22;11062;51.164;16.924;2023-04-29T03:08:08;33.00;33.30
21801;DHT22;11062;51.164;16.924;2023-04-29T03:10:35;33.10;33.30
21801;DHT22;11062;51.164;16.924;2023-04-29T03:13:04;33.00;33.20
21801;DHT22;11062;51.164;16.924;2023-04-29T03:15:35;33.10;33.30
21801;DHT22;11062;51.164;16.924;2023-04-29T03:18:01;33.10;33.30
21801;DHT22;11062;51.164;16.924;2023-04-29T03:20:32;33.10;33.20
21801;DHT22;11062;51.164;16.924;2023-04-29T03:23:01;33.10;33.80
21801;DHT22;11062;51.164;16.924;2023-04-29T03:25:27;33.10;33.10
21801;DHT22;11062;51.164;16.924;2023-04-29T03:27:53;33.00;33.10
21801;DHT22;11062;51.164;16.924;2023-04-29T03:30:19;33.00;33.10
21801;DHT22;11062;51.164;16.924;2023-04-29T03:32:45;33.00;33.10
21801;DHT22;11062;51.164;16.924;2023-04-29T03:35:14;33.00;33.10
21801;DHT22;11062;51.164;16.924;2023-04-29T03:37:40;33.00;33.10
21801;DHT22;11062;51.164;16.924;2023-04-29T03:40:12;32.70;32.90
21801;DHT22;11062;51.164;16.924;2023-04-29T03:42:38;32.80;33.00
21801;DHT22;11062;51.164;16.924;2023-04-29T03:45:05;32.90;33.10
21801;DHT22;11062;51.164;16.924;2023-04-29T03:47:31;33.00;33.10
21801;DHT22;11062;51.164;16.924;2023-04-29T03:49:57;32.90;33.20
21801;DHT22;11062;51.164;16.924;2023-04-29T03:52:23;33.00;33.30
21801;DHT22;11062;51.164;16.924;2023-04-29T03:54:50;33.00;33.30
21801;DHT22;11062;51.164;16.924;2023-04-29T03:57:16;33.00;33.20
21801;DHT22;11062;51.164;16.924;2023-04-29T03:59:42;33.00;33.30
21801;DHT22;11062;51.164;16.924;2023-04-29T04:02:08;33.00;33.10
21801;DHT22;11062;51.164;16.924;2023-04-29T04:04:34;33.00;33.00
21801;DHT22;11062;51.164;16.924;2023-04-29T04:07:00;33.00;33.00
21801;DHT22;11062;51.164;16.924;2023-04-29T04:09:26;32.90;33.00
21801;DHT22;11062;51.164;16.924;2023-04-29T04:11:52;33.00;33.30
21801;DHT22;11062;51.164;16.924;2023-04-29T04:14:18;33.00;33.30
21801;DHT22;11062;51.164;16.924;2023-04-29T04:16:44;32.90;33.20
21801;DHT22;11062;51.164;16.924;2023-04-29T04:19:10;32.90;33.50
21801;DHT22;11062;51.164;16.924;2023-04-29T04:21:36;32.90;33.50
21801;DHT22;11062;51.164;16.924;2023-04-29T04:24:02;32.90;33.40
21801;DHT22;11062;51.164;16.924;2023-04-29T04:26:28;32.90;33.50
21801;DHT22;11062;51.164;16.924;2023-04-29T04:28:54;32.90;33.50
21801;DHT22;11062;51.164;16.924;2023-04-29T04:31:20;32.90;33.70
21801;DHT22;11062;51.164;16.924;2023-04-29T04:33:46;32.90;33.80
21801;DHT22;11062;51.164;16.924;2023-04-29T04:36:12;32.90;34.10
21801;DHT22;11062;51.164;16.924;2023-04-29T04:38:38;33.00;34.20
21801;DHT22;11062;51.164;16.924;2023-04-29T04:41:07;33.00;34.40
21801;DHT22;11062;51.164;16.924;2023-04-29T04:43:36;33.00;34.20
21801;DHT22;11062;51.164;16.924;2023-04-29T04:46:13;32.90;34.20
21801;DHT22;11062;51.164;16.924;2023-04-29T04:48:40;32.80;34.20
21801;DHT22;11062;51.164;16.924;2023-04-29T04:51:08;32.60;34.00
21801;DHT22;11062;51.164;16.924;2023-04-29T04:53:37;32.80;34.00
21801;DHT22;11062;51.164;16.924;2023-04-29T04:56:04;32.80;34.10
21801;DHT22;11062;51.164;16.924;2023-04-29T04:58:33;32.70;34.10
21801;DHT22;11062;51.164;16.924;2023-04-29T05:01:01;32.70;34.30
21801;DHT22;11062;51.164;16.924;2023-04-29T05:03:30;32.70;34.40
21801;DHT22;11062;51.164;16.924;2023-04-29T05:05:57;32.70;34.40
21801;DHT22;11062;51.164;16.924;2023-04-29T05:08:24;32.90;34.40
21801;DHT22;11062;51.164;16.924;2023-04-29T05:10:50;32.90;34.50
21801;DHT22;11062;51.164;16.924;2023-04-29T05:13:17;32.90;34.40
21801;DHT22;11062;51.164;16.924;2023-04-29T05:15:43;33.00;34.50
21801;DHT22;11062;51.164;16.924;2023-04-29T05:18:09;32.90;34.40
21801;DHT22;11062;51.164;16.924;2023-04-29T05:20:35;33.00;34.30
21801;DHT22;11062;51.164;16.924;2023-04-29T05:23:02;32.80;34.70
21801;DHT22;11062;51.164;16.924;2023-04-29T05:25:28;32.50;34.60
21801;DHT22;11062;51.164;16.924;2023-04-29T05:27:54;32.30;34.90
21801;DHT22;11062;51.164;16.924;2023-04-29T05:30:20;32.60;35.30
21801;DHT22;11062;51.164;16.924;2023-04-29T05:32:46;32.80;35.30
21801;DHT22;11062;51.164;16.924;2023-04-29T05:35:16;32.70;35.30
21801;DHT22;11062;51.164;16.924;2023-04-29T05:37:42;32.70;35.60
21801;DHT22;11062;51.164;16.924;2023-04-29T05:40:08;32.30;35.60
21801;DHT22;11062;51.164;16.924;2023-04-29T05:42:34;32.10;35.80
21801;DHT22;11062;51.164;16.924;2023-04-29T05:45:04;32.20;36.70
21801;DHT22;11062;51.164;16.924;2023-04-29T05:47:33;32.50;37.00
21801;DHT22;11062;51.164;16.924;2023-04-29T05:49:59;32.60;36.60
21801;DHT22;11062;51.164;16.924;2023-04-29T05:52:25;32.30;36.00
21801;DHT22;11062;51.164;16.924;2023-04-29T05:54:53;32.70;36.60
21801;DHT22;11062;51.164;16.924;2023-04-29T05:57:19;33.00;36.60
21801;DHT22;11062;51.164;16.924;2023-04-29T05:59:48;32.70;35.70
21801;DHT22;11062;51.164;16.924;2023-04-29T06:02:14;32.80;36.10
21801;DHT22;11062;51.164;16.924;2023-04-29T06:04:40;32.70;36.20
21801;DHT22;11062;51.164;16.924;2023-04-29T06:07:07;33.20;36.20
21801;DHT22;11062;51.164;16.924;2023-04-29T06:09:35;33.20;36.00
21801;DHT22;11062;51.164;16.924;2023-04-29T06:12:07;33.10;35.70
21801;DHT22;11062;51.164;16.924;2023-04-29T06:14:33;32.50;35.90
21801;DHT22;11062;51.164;16.924;2023-04-29T06:17:02;32.10;36.00
21801;DHT22;11062;51.164;16.924;2023-04-29T06:19:28;32.40;36.50
21801;DHT22;11062;51.164;16.924;2023-04-29T06:21:54;32.40;36.50
21801;DHT22;11062;51.164;16.924;2023-04-29T06:24:20;32.40;36.00
21801;DHT22;11062;51.164;16.924;2023-04-29T06:26:46;32.90;36.10
21801;DHT22;11062;51.164;16.924;2023-04-29T06:29:16;32.80;36.10
21801;DHT22;11062;51.164;16.924;2023-04-29T06:31:49;33.30;36.00
21801;DHT22;11062;51.164;16.924;2023-04-29T08:19:45;34.00;40.20
21801;DHT22;11062;51.164;16.924;2023-04-29T08:22:12;34.00;40.00
21801;DHT22;11062;51.164;16.924;2023-04-29T08:24:43;34.00;40.00
21801;DHT22;11062;51.164;16.924;2023-04-29T08:27:13;34.20;40.10
21801;DHT22;11062;51.164;16.924;2023-04-29T08:29:42;34.10;39.80
21801;DHT22;11062;51.164;16.924;2023-04-29T08:32:09;34.20;40.20
21801;DHT22;11062;51.164;16.924;2023-04-29T08:34:38;34.20;40.10
21801;DHT22;11062;51.164;16.924;2023-04-29T08:37:11;34.20;40.00
21801;DHT22;11062;51.164;16.924;2023-04-29T08:39:41;34.20;40.00
21801;DHT22;11062;51.164;16.924;2023-04-29T08:42:14;34.20;40.10
21801;DHT22;11062;51.164;16.924;2023-04-29T08:44:42;34.30;40.60
21801;DHT22;11062;51.164;16.924;2023-04-29T08:47:09;34.30;40.10
21801;DHT22;11062;51.164;16.924;2023-04-29T08:49:40;34.20;40.00
21801;DHT22;11062;51.164;16.924;2023-04-29T08:52:06;34.20;40.00
21801;DHT22;11062;51.164;16.924;2023-04-29T08:54:32;34.20;40.20
21801;DHT22;11062;51.164;16.924;2023-04-29T08:56:59;34.10;40.50
21801;DHT22;11062;51.164;16.924;2023-04-29T08:59:28;34.10;40.80
21801;DHT22;11062;51.164;16.924;2023-04-29T09:01:55;34.20;40.40
21801;DHT22;11062;51.164;16.924;2023-04-29T09:07:12;34.20;40.60
21801;DHT22;11062;51.164;16.924;2023-04-29T09:09:39;34.30;41.20
21801;DHT22;11062;51.164;16.924;2023-04-29T09:12:06;34.30;42.40
21801;DHT22;11062;51.164;16.924;2023-04-29T09:14:32;34.40;42.40
21801;DHT22;11062;51.164;16.924;2023-04-29T09:17:02;34.10;41.50
21801;DHT22;11062;51.164;16.924;2023-04-29T09:19:29;34.00;42.10
21801;DHT22;11062;51.164;16.924;2023-04-29T09:22:05;33.60;42.30
21801;DHT22;11062;51.164;16.924;2023-04-29T09:24:34;34.00;41.80
21801;DHT22;11062;51.164;16.924;2023-04-29T09:27:09;33.90;42.10
21801;DHT22;11062;51.164;16.924;2023-04-29T09:30:08;33.90;41.50
21801;DHT22;11062;51.164;16.924;2023-04-29T09:32:38;34.00;40.90
21801;DHT22;11062;51.164;16.924;2023-04-29T09:35:26;34.00;41.00
21801;DHT22;11062;51.164;16.924;2023-04-29T09:38:13;34.40;40.60
21801;DHT22;11062;51.164;16.924;2023-04-29T09:40:42;34.60;40.90
21801;DHT22;11062;51.164;16.924;2023-04-29T09:43:16;34.50;39.80
21801;DHT22;11062;51.164;16.924;2023-04-29T09:45:48;34.70;40.00
21801;DHT22;11062;51.164;16.924;2023-04-29T09:48:15;34.80;39.90
21801;DHT22;11062;51.164;16.924;2023-04-29T09:50:58;34.90;40.00
21801;DHT22;11062;51.164;16.924;2023-04-29T09:53:29;35.00;40.10
21801;DHT22;11062;51.164;16.924;2023-04-29T09:56:02;35.20;39.90
21801;DHT22;11062;51.164;16.924;2023-04-29T09:58:35;35.40;40.20
21801;DHT22;11062;51.164;16.924;2023-04-29T10:01:07;35.40;38.80
21801;DHT22;11062;51.164;16.924;2023-04-29T10:03:40;35.40;38.70
21801;DHT22;11062;51.164;16.924;2023-04-29T10:06:07;35.50;38.50
21801;DHT22;11062;51.164;16.924;2023-04-29T10:08:39;35.60;38.90
21801;DHT22;11062;51.164;16.924;2023-04-29T10:11:15;35.70;38.60
21801;DHT22;11062;51.164;16.924;2023-04-29T10:13:45;35.80;38.80
21801;DHT22;11062;51.164;16.924;2023-04-29T10:16:32;35.90;38.70
21801;DHT22;11062;51.164;16.924;2023-04-29T10:19:02;36.00;38.40
21801;DHT22;11062;51.164;16.924;2023-04-29T10:21:30;36.00;39.20
21801;DHT22;11062;51.164;16.924;2023-04-29T10:23:58;36.00;38.20
21801;DHT22;11062;51.164;16.924;2023-04-29T10:26:28;35.90;38.90
21801;DHT22;11062;51.164;16.924;2023-04-29T10:29:00;35.90;38.50
21801;DHT22;11062;51.164;16.924;2023-04-29T10:31:30;35.80;38.20
21801;DHT22;11062;51.164;16.924;2023-04-29T10:34:03;35.80;38.20
21801;DHT22;11062;51.164;16.924;2023-04-29T10:36:29;35.90;38.50
21801;DHT22;11062;51.164;16.924;2023-04-29T10:39:02;36.00;38.00
21801;DHT22;11062;51.164;16.924;2023-04-29T10:41:42;36.10;37.40
21801;DHT22;11062;51.164;16.924;2023-04-29T10:44:12;36.20;36.70
21801;DHT22;11062;51.164;16.924;2023-04-29T10:46:38;36.20;37.10
21801;DHT22;11062;51.164;16.924;2023-04-29T10:49:05;36.30;37.50
21801;DHT22;11062;51.164;16.924;2023-04-29T10:51:33;36.60;38.10
21801;DHT22;11062;51.164;16.924;2023-04-29T10:54:12;36.90;37.90
21801;DHT22;11062;51.164;16.924;2023-04-29T10:56:40;37.00;36.80
21801;DHT22;11062;51.164;16.924;2023-04-29T10:59:14;37.10;37.40
21801;DHT22;11062;51.164;16.924;2023-04-29T11:22:57;38.80;34.10
21801;DHT22;11062;51.164;16.924;2023-04-29T11:25:39;38.90;34.00
21801;DHT22;11062;51.164;16.924;2023-04-29T11:28:27;38.80;32.80
21801;DHT22;11062;51.164;16.924;2023-04-29T11:34:05;39.20;32.30
21801;DHT22;11062;51.164;16.924;2023-04-29T11:37:39;39.00;32.10
21801;DHT22;11062;51.164;16.924;2023-04-29T11:40:56;39.00;33.00
21801;DHT22;11062;51.164;16.924;2023-04-29T11:44:27;39.00;32.60
21801;DHT22;11062;51.164;16.924;2023-04-29T11:47:56;39.20;32.40
21801;DHT22;11062;51.164;16.924;2023-04-29T11:51:07;39.20;32.10
21801;DHT22;11062;51.164;16.924;2023-04-29T11:54:50;39.30;31.90
21801;DHT22;11062;51.164;16.924;2023-04-29T11:58:43;39.10;32.80
21801;DHT22;11062;51.164;16.924;2023-04-29T12:05:52;38.70;33.60
21801;DHT22;11062;51.164;16.924;2023-04-29T12:12:52;36.60;35.90
21801;DHT22;11062;51.164;16.924;2023-04-29T12:19:52;35.20;38.40
21801;DHT22;11062;51.164;16.924;2023-04-29T12:27:33;35.20;40.60
21801;DHT22;11062;51.164;16.924;2023-04-29T12:30:51;35.40;41.40
21801;DHT22;11062;51.164;16.924;2023-04-29T12:34:33;35.80;43.30
21801;DHT22;11062;51.164;16.924;2023-04-29T12:45:04;36.20;38.80
21801;DHT22;11062;51.164;16.924;2023-04-29T12:48:19;36.20;38.30
21801;DHT22;11062;51.164;16.924;2023-04-29T12:51:49;36.50;38.90
21801;DHT22;11062;51.164;16.924;2023-04-29T12:55:02;37.10;38.10
21801;DHT22;11062;51.164;16.924;2023-04-29T12:57:32;37.40;37.70
21801;DHT22;11062;51.164;16.924;2023-04-29T13:00:08;37.40;38.30
21801;DHT22;11062;51.164;16.924;2023-04-29T13:03:01;37.80;36.30
21801;DHT22;11062;51.164;16.924;2023-04-29T13:13:16;39.40;34.70
21801;DHT22;11062;51.164;16.924;2023-04-29T13:16:35;39.70;33.00
21801;DHT22;11062;51.164;16.924;2023-04-29T13:26:13;41.10;31.10
21801;DHT22;11062;51.164;16.924;2023-04-29T13:29:34;41.00;31.20
21801;DHT22;11062;51.164;16.924;2023-04-29T13:32:50;40.70;31.20
21801;DHT22;11062;51.164;16.924;2023-04-29T13:36:05;40.50;31.00
21801;DHT22;11062;51.164;16.924;2023-04-29T13:39:30;40.00;31.50
21801;DHT22;11062;51.164;16.924;2023-04-29T13:42:45;39.60;32.60
21801;DHT22;11062;51.164;16.924;2023-04-29T13:45:32;39.10;33.20
21801;DHT22;11062;51.164;16.924;2023-04-29T13:48:49;38.10;33.40
21801;DHT22;11062;51.164;16.924;2023-04-29T13:52:29;37.80;34.50
21801;DHT22;11062;51.164;16.924;2023-04-29T13:55:38;37.40;35.80
21801;DHT22;11062;51.164;16.924;2023-04-29T13:58:58;37.00;36.80
21801;DHT22;11062;51.164;16.924;2023-04-29T14:01:52;37.00;36.50
21801;DHT22;11062;51.164;16.924;2023-04-29T14:05:00;36.80;37.00
21801;DHT22;11062;51.164;16.924;2023-04-29T14:07:36;37.00;36.20
21801;DHT22;11062;51.164;16.924;2023-04-29T14:10:07;36.80;37.10
21801;DHT22;11062;51.164;16.924;2023-04-29T14:12:35;37.10;37.00
21801;DHT22;11062;51.164;16.924;2023-04-29T14:15:07;37.10;36.70
21801;DHT22;11062;51.164;16.924;2023-04-29T14:17:33;37.10;36.00
21801;DHT22;11062;51.164;16.924;2023-04-29T14:20:03;37.10;35.80
21801;DHT22;11062;51.164;16.924;2023-04-29T14:22:32;37.50;35.30
21801;DHT22;11062;51.164;16.924;2023-04-29T14:24:58;37.60;35.60
21801;DHT22;11062;51.164;16.924;2023-04-29T14:27:24;37.70;35.10
21801;DHT22;11062;51.164;16.924;2023-04-29T14:29:54;37.70;35.20
21801;DHT22;11062;51.164;16.924;2023-04-29T14:32:25;37.90;35.50
21801;DHT22;11062;51.164;16.924;2023-04-29T14:34:51;37.80;35.20
21801;DHT22;11062;51.164;16.924;2023-04-29T14:37:17;37.70;35.30
21801;DHT22;11062;51.164;16.924;2023-04-29T14:39:43;37.60;36.00
21801;DHT22;11062;51.164;16.924;2023-04-29T14:42:12;37.40;35.60
21801;DHT22;11062;51.164;16.924;2023-04-29T14:44:43;37.10;35.90
21801;DHT22;11062;51.164;16.924;2023-04-29T15:11:29;31.50;44.00
21801;DHT22;11062;51.164;16.924;2023-04-29T15:49:07;33.30;43.80
21801;DHT22;11062;51.164;16.924;2023-04-29T15:51:34;33.10;43.80
21801;DHT22;11062;51.164;16.924;2023-04-29T15:54:02;33.20;44.10
21801;DHT22;11062;51.164;16.924;2023-04-29T15:56:32;33.10;43.70
21801;DHT22;11062;51.164;16.924;2023-04-29T15:59:00;33.10;44.10
21801;DHT22;11062;51.164;16.924;2023-04-29T16:01:26;32.90;44.00
21801;DHT22;11062;51.164;16.924;2023-04-29T16:03:52;33.00;43.80
21801;DHT22;11062;51.164;16.924;2023-04-29T16:06:21;33.20;44.30
21801;DHT22;11062;51.164;16.924;2023-04-29T16:08:55;33.20;44.60
21801;DHT22;11062;51.164;16.924;2023-04-29T16:11:25;33.50;44.20
21801;DHT22;11062;51.164;16.924;2023-04-29T16:13:54;33.50;43.90
21801;DHT22;11062;51.164;16.924;2023-04-29T16:16:20;33.60;44.00
21801;DHT22;11062;51.164;16.924;2023-04-29T16:18:46;33.70;44.00
21801;DHT22;11062;51.164;16.924;2023-04-29T16:21:12;33.50;43.40
21801;DHT22;11062;51.164;16.924;2023-04-29T16:23:40;33.50;43.40
21801;DHT22;11062;51.164;16.924;2023-04-29T16:26:07;33.10;43.30
21801;DHT22;11062;51.164;16.924;2023-04-29T16:28:33;32.80;43.50
21801;DHT22;11062;51.164;16.924;2023-04-29T16:30:59;32.90;44.10
21801;DHT22;11062;51.164;16.924;2023-04-29T16:33:25;32.80;43.70
21801;DHT22;11062;51.164;16.924;2023-04-29T16:35:51;32.60;43.70
21801;DHT22;11062;51.164;16.924;2023-04-29T16:38:29;32.60;44.30
21801;DHT22;11062;51.164;16.924;2023-04-29T16:40:58;32.30;44.00
21801;DHT22;11062;51.164;16.924;2023-04-29T16:43:27;32.40;44.00
21801;DHT22;11062;51.164;16.924;2023-04-29T16:45:53;31.70;43.90
21801;DHT22;11062;51.164;16.924;2023-04-29T16:48:19;31.60;44.30
21801;DHT22;11062;51.164;16.924;2023-04-29T16:50:47;31.10;44.70
21801;DHT22;11062;51.164;16.924;2023-04-29T18:00:44;30.70;44.50
21801;DHT22;11062;51.164;16.924;2023-04-29T18:11:05;31.00;43.60
21801;DHT22;11062;51.164;16.924;2023-04-29T18:14:46;30.70;43.50
21801;DHT22;11062;51.164;16.924;2023-04-29T18:25:40;29.80;44.10
21801;DHT22;11062;51.164;16.924;2023-04-29T18:29:06;29.40;44.80
21801;DHT22;11062;51.164;16.924;2023-04-29T18:42:58;29.20;45.30
21801;DHT22;11062;51.164;16.924;2023-04-29T18:46:24;29.50;45.30
21801;DHT22;11062;51.164;16.924;2023-04-29T18:50:02;29.80;44.80
21801;DHT22;11062;51.164;16.924;2023-04-29T18:53:32;30.10;44.40
21801;DHT22;11062;51.164;16.924;2023-04-29T19:04:16;30.30;44.00
21801;DHT22;11062;51.164;16.924;2023-04-29T19:15:03;31.00;43.40
21801;DHT22;11062;51.164;16.924;2023-04-29T19:25:51;31.80;42.70
21801;DHT22;11062;51.164;16.924;2023-04-29T19:29:19;31.90;42.20
21801;DHT22;11062;51.164;16.924;2023-04-29T19:36:00;32.00;42.70
21801;DHT22;11062;51.164;16.924;2023-04-29T19:39:00;31.90;41.70
21801;DHT22;11062;51.164;16.924;2023-04-29T19:41:29;31.80;42.10
21801;DHT22;11062;51.164;16.924;2023-04-29T19:43:56;31.60;42.30
21801;DHT22;11062;51.164;16.924;2023-04-29T20:07:08;30.90;42.70
21801;DHT22;11062;51.164;16.924;2023-04-29T20:09:37;30.40;42.60
21801;DHT22;11062;51.164;16.924;2023-04-29T21:06:19;30.10;43.30
21801;DHT22;11062;51.164;16.924;2023-04-29T21:35:08;29.50;43.30
21801;DHT22;11062;51.164;16.924;2023-04-29T22:05:09;27.50;43.70
21801;DHT22;11062;51.164;16.924;2023-04-29T22:18:28;28.20;41.80
